sensor_id;sensor_type;location;lat;lon;timestamp;P1;durP1;ratioP1;P2;durP2;ratioP2
66702;SDS011;60933;46.398;-63.798;2023-04-25T00:01:20;7.22;;;3.45;;
66702;SDS011;60933;46.398;-63.798;2023-04-25T00:03:47;7.32;;;3.45;;
66702;SDS011;60933;46.398;-63.798;2023-04-25T00:06:14;9.80;;;3.78;;
66702;SDS011;60933;46.398;-63.798;2023-04-25T00:08:40;8.57;;;3.75;;
66702;SDS011;60933;46.398;-63.798;2023-04-25T00:11:06;10.02;;;3.65;;
66702;SDS011;60933;46.398;-63.798;2023-04-25T00:13:32;9.68;;;4.50;;
66702;SDS011;60933;46.398;-63.798;2023-04-25T00:15:58;6.53;;;2.92;;
66702;SDS011;60933;46.398;-63.798;2023-04-25T00:18:25;8.73;;;3.78;;
66702;SDS011;60933;46.398;-63.798;2023-04-25T00:20:54;11.23;;;3.38;;
66702;SDS011;60933;46.398;-63.798;2023-04-25T00:23:20;8.40;;;3.50;;
66702;SDS011;60933;46.398;-63.798;2023-04-25T00:25:47;9.98;;;3.70;;
66702;SDS011;60933;46.398;-63.798;2023-04-25T00:28:15;9.48;;;3.50;;
66702;SDS011;60933;46.398;-63.798;2023-04-25T00:30:42;7.70;;;3.38;;
66702;SDS011;60933;46.398;-63.798;2023-04-25T00:33:09;7.07;;;3.20;;
66702;SDS011;60933;46.398;-63.798;2023-04-25T00:35:35;7.57;;;3.10;;
66702;SDS011;60933;46.398;-63.798;2023-04-25T00:38:02;7.60;;;3.17;;
66702;SDS011;60933;46.398;-63.798;2023-04-25T00:40:28;8.48;;;3.40;;
66702;SDS011;60933;46.398;-63.798;2023-04-25T00:42:54;8.20;;;3.10;;
66702;SDS011;60933;46.398;-63.798;2023-04-25T00:45:20;7.65;;;3.30;;
66702;SDS011;60933;46.398;-63.798;2023-04-25T00:47:47;5.72;;;2.67;;
66702;SDS011;60933;46.398;-63.798;2023-04-25T00:50:13;14.40;;;6.72;;
66702;SDS011;60933;46.398;-63.798;2023-04-25T00:52:40;9.35;;;3.38;;
66702;SDS011;60933;46.398;-63.798;2023-04-25T00:55:08;4.90;;;2.63;;
66702;SDS011;60933;46.398;-63.798;2023-04-25T00:57:35;6.70;;;2.92;;
66702;SDS011;60933;46.398;-63.798;2023-04-25T01:00:03;9.07;;;3.10;;
66702;SDS011;60933;46.398;-63.798;2023-04-25T01:05:01;6.82;;;2.92;;
66702;SDS011;60933;46.398;-63.798;2023-04-25T01:07:28;5.07;;;2.88;;
66702;SDS011;60933;46.398;-63.798;2023-04-25T01:09:54;10.40;;;3.85;;
66702;SDS011;60933;46.398;-63.798;2023-04-25T01:12:20;8.20;;;3.03;;
66702;SDS011;60933;46.398;-63.798;2023-04-25T01:14:46;4.85;;;2.58;;
66702;SDS011;60933;46.398;-63.798;2023-04-25T01:17:13;7.95;;;3.00;;
66702;SDS011;60933;46.398;-63.798;2023-04-25T01:19:40;7.00;;;3.58;;
66702;SDS011;60933;46.398;-63.798;2023-04-25T01:22:06;8.48;;;2.78;;
66702;SDS011;60933;46.398;-63.798;2023-04-25T01:24:35;11.27;;;3.50;;
66702;SDS011;60933;46.398;-63.798;2023-04-25T01:27:02;10.02;;;3.15;;
66702;SDS011;60933;46.398;-63.798;2023-04-25T01:29:28;7.50;;;2.95;;
66702;SDS011;60933;46.398;-63.798;2023-04-25T01:31:55;9.88;;;3.38;;
66702;SDS011;60933;46.398;-63.798;2023-04-25T01:34:23;7.60;;;3.00;;
66702;SDS011;60933;46.398;-63.798;2023-04-25T01:36:50;8.23;;;3.08;;
66702;SDS011;60933;46.398;-63.798;2023-04-25T01:39:17;7.65;;;2.78;;
66702;SDS011;60933;46.398;-63.798;2023-04-25T01:41:44;5.50;;;2.90;;
66702;SDS011;60933;46.398;-63.798;2023-04-25T01:44:11;10.02;;;3.28;;
66702;SDS011;60933;46.398;-63.798;2023-04-25T01:46:37;6.50;;;2.70;;
66702;SDS011;60933;46.398;-63.798;2023-04-25T01:49:04;9.30;;;3.78;;
66702;SDS011;60933;46.398;-63.798;2023-04-25T01:51:30;10.55;;;3.63;;
66702;SDS011;60933;46.398;-63.798;2023-04-25T01:53:56;7.07;;;3.15;;
66702;SDS011;60933;46.398;-63.798;2023-04-25T01:56:23;8.75;;;3.10;;
66702;SDS011;60933;46.398;-63.798;2023-04-25T01:58:50;5.35;;;2.90;;
66702;SDS011;60933;46.398;-63.798;2023-04-25T02:01:17;7.47;;;3.25;;
66702;SDS011;60933;46.398;-63.798;2023-04-25T02:03:43;8.18;;;3.22;;
66702;SDS011;60933;46.398;-63.798;2023-04-25T02:06:09;7.10;;;3.20;;
66702;SDS011;60933;46.398;-63.798;2023-04-25T02:08:35;8.05;;;2.85;;
66702;SDS011;60933;46.398;-63.798;2023-04-25T02:11:02;9.20;;;3.38;;
66702;SDS011;60933;46.398;-63.798;2023-04-25T02:13:28;4.90;;;2.47;;
66702;SDS011;60933;46.398;-63.798;2023-04-25T02:15:55;6.75;;;3.22;;
66702;SDS011;60933;46.398;-63.798;2023-04-25T02:18:21;7.82;;;3.13;;
66702;SDS011;60933;46.398;-63.798;2023-04-25T02:20:47;8.70;;;4.38;;
66702;SDS011;60933;46.398;-63.798;2023-04-25T02:23:13;9.27;;;3.65;;
66702;SDS011;60933;46.398;-63.798;2023-04-25T02:25:44;7.95;;;3.22;;
66702;SDS011;60933;46.398;-63.798;2023-04-25T02:28:10;4.90;;;2.70;;
66702;SDS011;60933;46.398;-63.798;2023-04-25T02:30:36;7.90;;;3.22;;
66702;SDS011;60933;46.398;-63.798;2023-04-25T02:33:03;6.75;;;2.83;;
66702;SDS011;60933;46.398;-63.798;2023-04-25T02:35:29;6.40;;;3.30;;
66702;SDS011;60933;46.398;-63.798;2023-04-25T02:37:55;5.80;;;2.55;;
66702;SDS011;60933;46.398;-63.798;2023-04-25T02:40:21;6.65;;;2.55;;
66702;SDS011;60933;46.398;-63.798;2023-04-25T02:42:47;10.32;;;3.35;;
66702;SDS011;60933;46.398;-63.798;2023-04-25T02:45:13;8.32;;;2.90;;
66702;SDS011;60933;46.398;-63.798;2023-04-25T02:47:40;7.40;;;3.28;;
66702;SDS011;60933;46.398;-63.798;2023-04-25T02:50:06;6.43;;;3.15;;
66702;SDS011;60933;46.398;-63.798;2023-04-25T02:52:33;7.05;;;3.15;;
66702;SDS011;60933;46.398;-63.798;2023-04-25T02:54:59;6.40;;;2.72;;
66702;SDS011;60933;46.398;-63.798;2023-04-25T02:57:25;9.75;;;3.22;;
66702;SDS011;60933;46.398;-63.798;2023-04-25T02:59:51;7.88;;;3.10;;
66702;SDS011;60933;46.398;-63.798;2023-04-25T03:02:17;7.95;;;3.47;;
66702;SDS011;60933;46.398;-63.798;2023-04-25T03:04:43;5.60;;;2.90;;
66702;SDS011;60933;46.398;-63.798;2023-04-25T03:07:09;8.18;;;3.05;;
66702;SDS011;60933;46.398;-63.798;2023-04-25T03:09:36;6.78;;;3.25;;
66702;SDS011;60933;46.398;-63.798;2023-04-25T03:12:02;6.07;;;3.10;;
66702;SDS011;60933;46.398;-63.798;2023-04-25T03:14:28;7.20;;;3.42;;
66702;SDS011;60933;46.398;-63.798;2023-04-25T03:16:54;5.78;;;2.53;;
66702;SDS011;60933;46.398;-63.798;2023-04-25T03:19:21;8.13;;;3.60;;
66702;SDS011;60933;46.398;-63.798;2023-04-25T03:21:47;4.97;;;3.15;;
66702;SDS011;60933;46.398;-63.798;2023-04-25T03:24:13;6.10;;;3.60;;
66702;SDS011;60933;46.398;-63.798;2023-04-25T03:26:39;6.07;;;3.60;;
66702;SDS011;60933;46.398;-63.798;2023-04-25T03:29:05;9.35;;;3.20;;
66702;SDS011;60933;46.398;-63.798;2023-04-25T03:31:31;8.48;;;3.40;;
66702;SDS011;60933;46.398;-63.798;2023-04-25T03:33:57;9.35;;;3.22;;
66702;SDS011;60933;46.398;-63.798;2023-04-25T03:36:24;7.55;;;3.65;;
66702;SDS011;60933;46.398;-63.798;2023-04-25T03:38:50;8.63;;;3.70;;
66702;SDS011;60933;46.398;-63.798;2023-04-25T03:41:16;10.30;;;3.97;;
66702;SDS011;60933;46.398;-63.798;2023-04-25T03:43:42;10.38;;;4.03;;
66702;SDS011;60933;46.398;-63.798;2023-04-25T03:46:08;9.13;;;3.15;;
66702;SDS011;60933;46.398;-63.798;2023-04-25T03:48:34;10.75;;;3.55;;
66702;SDS011;60933;46.398;-63.798;2023-04-25T03:51:00;12.13;;;4.05;;
66702;SDS011;60933;46.398;-63.798;2023-04-25T03:53:26;11.20;;;3.72;;
66702;SDS011;60933;46.398;-63.798;2023-04-25T03:55:52;12.00;;;4.28;;
66702;SDS011;60933;46.398;-63.798;2023-04-25T03:58:19;12.98;;;4.53;;
66702;SDS011;60933;46.398;-63.798;2023-04-25T04:00:45;13.80;;;4.25;;
66702;SDS011;60933;46.398;-63.798;2023-04-25T04:03:11;12.80;;;4.88;;
66702;SDS011;60933;46.398;-63.798;2023-04-25T04:05:37;15.45;;;5.47;;
66702;SDS011;60933;46.398;-63.798;2023-04-25T04:08:05;11.35;;;5.25;;
66702;SDS011;60933;46.398;-63.798;2023-04-25T04:10:32;14.30;;;5.82;;
66702;SDS011;60933;46.398;-63.798;2023-04-25T04:12:58;13.00;;;4.85;;
66702;SDS011;60933;46.398;-63.798;2023-04-25T04:15:24;9.85;;;3.92;;
66702;SDS011;60933;46.398;-63.798;2023-04-25T04:17:50;8.02;;;3.97;;
66702;SDS011;60933;46.398;-63.798;2023-04-25T04:20:16;9.68;;;4.13;;
66702;SDS011;60933;46.398;-63.798;2023-04-25T04:22:42;7.35;;;4.30;;
66702;SDS011;60933;46.398;-63.798;2023-04-25T04:25:08;10.65;;;3.97;;
66702;SDS011;60933;46.398;-63.798;2023-04-25T04:27:37;6.60;;;3.33;;
66702;SDS011;60933;46.398;-63.798;2023-04-25T04:30:03;9.30;;;3.63;;
66702;SDS011;60933;46.398;-63.798;2023-04-25T04:32:31;9.13;;;3.40;;
66702;SDS011;60933;46.398;-63.798;2023-04-25T04:34:58;6.18;;;3.67;;
66702;SDS011;60933;46.398;-63.798;2023-04-25T04:37:24;9.90;;;3.83;;
66702;SDS011;60933;46.398;-63.798;2023-04-25T04:39:50;11.45;;;3.60;;
66702;SDS011;60933;46.398;-63.798;2023-04-25T04:42:17;7.78;;;3.20;;
66702;SDS011;60933;46.398;-63.798;2023-04-25T04:44:43;9.52;;;3.97;;
66702;SDS011;60933;46.398;-63.798;2023-04-25T04:47:09;10.57;;;4.18;;
66702;SDS011;60933;46.398;-63.798;2023-04-25T04:49:37;12.00;;;4.13;;
66702;SDS011;60933;46.398;-63.798;2023-04-25T04:52:03;9.23;;;3.95;;
66702;SDS011;60933;46.398;-63.798;2023-04-25T04:54:29;12.60;;;4.55;;
66702;SDS011;60933;46.398;-63.798;2023-04-25T04:56:56;10.77;;;4.50;;
66702;SDS011;60933;46.398;-63.798;2023-04-25T04:59:22;10.32;;;4.65;;
66702;SDS011;60933;46.398;-63.798;2023-04-25T05:01:48;10.50;;;4.30;;
66702;SDS011;60933;46.398;-63.798;2023-04-25T05:04:15;11.07;;;4.38;;
66702;SDS011;60933;46.398;-63.798;2023-04-25T05:06:41;14.07;;;4.65;;
66702;SDS011;60933;46.398;-63.798;2023-04-25T05:09:07;14.40;;;4.63;;
66702;SDS011;60933;46.398;-63.798;2023-04-25T05:11:33;12.20;;;4.50;;
66702;SDS011;60933;46.398;-63.798;2023-04-25T05:13:59;13.02;;;4.75;;
66702;SDS011;60933;46.398;-63.798;2023-04-25T05:16:25;12.38;;;4.57;;
66702;SDS011;60933;46.398;-63.798;2023-04-25T05:18:51;10.57;;;3.63;;
66702;SDS011;60933;46.398;-63.798;2023-04-25T05:21:17;10.27;;;4.40;;
66702;SDS011;60933;46.398;-63.798;2023-04-25T05:23:44;13.80;;;3.97;;
66702;SDS011;60933;46.398;-63.798;2023-04-25T05:26:10;10.95;;;4.22;;
66702;SDS011;60933;46.398;-63.798;2023-04-25T05:28:41;8.18;;;3.58;;
66702;SDS011;60933;46.398;-63.798;2023-04-25T05:31:09;12.70;;;4.00;;
66702;SDS011;60933;46.398;-63.798;2023-04-25T05:33:35;8.07;;;3.50;;
66702;SDS011;60933;46.398;-63.798;2023-04-25T05:36:02;9.23;;;3.40;;
66702;SDS011;60933;46.398;-63.798;2023-04-25T05:38:28;8.50;;;4.05;;
66702;SDS011;60933;46.398;-63.798;2023-04-25T05:40:55;11.05;;;4.35;;
66702;SDS011;60933;46.398;-63.798;2023-04-25T05:43:21;12.35;;;4.40;;
66702;SDS011;60933;46.398;-63.798;2023-04-25T05:45:47;10.27;;;4.63;;
66702;SDS011;60933;46.398;-63.798;2023-04-25T05:48:13;11.57;;;4.30;;
66702;SDS011;60933;46.398;-63.798;2023-04-25T05:50:39;7.82;;;3.03;;
66702;SDS011;60933;46.398;-63.798;2023-04-25T05:53:05;11.30;;;3.85;;
66702;SDS011;60933;46.398;-63.798;2023-04-25T05:55:31;10.93;;;4.10;;
66702;SDS011;60933;46.398;-63.798;2023-04-25T05:57:57;13.25;;;4.13;;
66702;SDS011;60933;46.398;-63.798;2023-04-25T06:00:23;10.73;;;3.75;;
66702;SDS011;60933;46.398;-63.798;2023-04-25T06:02:49;10.27;;;3.75;;
66702;SDS011;60933;46.398;-63.798;2023-04-25T06:05:16;9.93;;;3.90;;
66702;SDS011;60933;46.398;-63.798;2023-04-25T06:07:42;10.70;;;3.95;;
66702;SDS011;60933;46.398;-63.798;2023-04-25T06:10:08;11.23;;;3.78;;
66702;SDS011;60933;46.398;-63.798;2023-04-25T06:12:35;11.80;;;4.53;;
66702;SDS011;60933;46.398;-63.798;2023-04-25T06:15:01;12.40;;;4.28;;
66702;SDS011;60933;46.398;-63.798;2023-04-25T06:17:27;9.90;;;4.18;;
66702;SDS011;60933;46.398;-63.798;2023-04-25T06:19:53;11.25;;;4.50;;
66702;SDS011;60933;46.398;-63.798;2023-04-25T06:22:19;8.52;;;4.53;;
66702;SDS011;60933;46.398;-63.798;2023-04-25T06:24:46;14.35;;;5.38;;
66702;SDS011;60933;46.398;-63.798;2023-04-25T06:27:12;11.93;;;4.28;;
66702;SDS011;60933;46.398;-63.798;2023-04-25T06:29:38;11.50;;;4.50;;
66702;SDS011;60933;46.398;-63.798;2023-04-25T06:32:04;13.48;;;4.07;;
66702;SDS011;60933;46.398;-63.798;2023-04-25T06:34:30;12.23;;;4.25;;
66702;SDS011;60933;46.398;-63.798;2023-04-25T06:36:57;11.43;;;3.88;;
66702;SDS011;60933;46.398;-63.798;2023-04-25T06:39:23;12.27;;;3.92;;
66702;SDS011;60933;46.398;-63.798;2023-04-25T06:41:50;8.95;;;3.83;;
66702;SDS011;60933;46.398;-63.798;2023-04-25T06:44:16;12.05;;;3.88;;
66702;SDS011;60933;46.398;-63.798;2023-04-25T06:46:42;11.00;;;3.75;;
66702;SDS011;60933;46.398;-63.798;2023-04-25T06:49:08;11.25;;;4.00;;
66702;SDS011;60933;46.398;-63.798;2023-04-25T06:51:34;14.18;;;4.10;;
66702;SDS011;60933;46.398;-63.798;2023-04-25T06:54:00;11.52;;;3.90;;
66702;SDS011;60933;46.398;-63.798;2023-04-25T06:56:29;10.98;;;4.20;;
66702;SDS011;60933;46.398;-63.798;2023-04-25T06:58:56;11.25;;;3.95;;
66702;SDS011;60933;46.398;-63.798;2023-04-25T07:01:22;16.17;;;4.32;;
66702;SDS011;60933;46.398;-63.798;2023-04-25T07:03:48;15.88;;;4.50;;
66702;SDS011;60933;46.398;-63.798;2023-04-25T07:06:14;13.32;;;5.00;;
66702;SDS011;60933;46.398;-63.798;2023-04-25T07:08:40;13.60;;;5.10;;
66702;SDS011;60933;46.398;-63.798;2023-04-25T07:11:06;15.07;;;4.82;;
66702;SDS011;60933;46.398;-63.798;2023-04-25T07:13:32;13.63;;;5.55;;
66702;SDS011;60933;46.398;-63.798;2023-04-25T07:15:59;14.48;;;5.70;;
66702;SDS011;60933;46.398;-63.798;2023-04-25T07:18:25;16.70;;;5.50;;
66702;SDS011;60933;46.398;-63.798;2023-04-25T07:20:51;14.43;;;5.25;;
66702;SDS011;60933;46.398;-63.798;2023-04-25T07:23:17;12.95;;;5.82;;
66702;SDS011;60933;46.398;-63.798;2023-04-25T07:25:44;15.15;;;4.85;;
66702;SDS011;60933;46.398;-63.798;2023-04-25T07:28:10;18.95;;;5.75;;
66702;SDS011;60933;46.398;-63.798;2023-04-25T07:30:36;19.90;;;5.07;;
66702;SDS011;60933;46.398;-63.798;2023-04-25T07:33:02;15.38;;;5.20;;
66702;SDS011;60933;46.398;-63.798;2023-04-25T07:35:28;15.73;;;4.57;;
66702;SDS011;60933;46.398;-63.798;2023-04-25T07:37:55;18.88;;;4.20;;
66702;SDS011;60933;46.398;-63.798;2023-04-25T07:40:21;15.13;;;5.38;;
66702;SDS011;60933;46.398;-63.798;2023-04-25T07:42:47;19.10;;;6.03;;
66702;SDS011;60933;46.398;-63.798;2023-04-25T07:45:13;17.02;;;4.95;;
66702;SDS011;60933;46.398;-63.798;2023-04-25T07:47:40;17.10;;;5.45;;
66702;SDS011;60933;46.398;-63.798;2023-04-25T07:50:06;15.48;;;4.85;;
66702;SDS011;60933;46.398;-63.798;2023-04-25T07:52:33;19.83;;;5.43;;
66702;SDS011;60933;46.398;-63.798;2023-04-25T07:54:59;13.55;;;4.80;;
66702;SDS011;60933;46.398;-63.798;2023-04-25T07:57:25;20.33;;;4.53;;
66702;SDS011;60933;46.398;-63.798;2023-04-25T07:59:51;25.30;;;5.60;;
66702;SDS011;60933;46.398;-63.798;2023-04-25T08:02:17;14.27;;;4.80;;
66702;SDS011;60933;46.398;-63.798;2023-04-25T08:04:44;15.65;;;4.85;;
66702;SDS011;60933;46.398;-63.798;2023-04-25T08:07:10;19.00;;;5.13;;
66702;SDS011;60933;46.398;-63.798;2023-04-25T08:09:36;14.73;;;4.50;;
66702;SDS011;60933;46.398;-63.798;2023-04-25T08:12:03;14.95;;;4.25;;
66702;SDS011;60933;46.398;-63.798;2023-04-25T08:14:30;12.20;;;4.10;;
66702;SDS011;60933;46.398;-63.798;2023-04-25T08:17:01;20.85;;;5.10;;
66702;SDS011;60933;46.398;-63.798;2023-04-25T08:19:29;16.38;;;4.50;;
66702;SDS011;60933;46.398;-63.798;2023-04-25T08:21:56;19.38;;;4.57;;
66702;SDS011;60933;46.398;-63.798;2023-04-25T08:24:22;16.25;;;4.72;;
66702;SDS011;60933;46.398;-63.798;2023-04-25T08:26:49;16.10;;;5.40;;
66702;SDS011;60933;46.398;-63.798;2023-04-25T08:29:15;14.38;;;4.38;;
66702;SDS011;60933;46.398;-63.798;2023-04-25T08:31:41;13.18;;;4.55;;
66702;SDS011;60933;46.398;-63.798;2023-04-25T08:34:07;15.18;;;4.82;;
66702;SDS011;60933;46.398;-63.798;2023-04-25T08:36:33;13.88;;;4.50;;
66702;SDS011;60933;46.398;-63.798;2023-04-25T08:38:59;13.07;;;5.38;;
66702;SDS011;60933;46.398;-63.798;2023-04-25T08:41:26;15.35;;;4.97;;
66702;SDS011;60933;46.398;-63.798;2023-04-25T08:43:52;13.75;;;4.75;;
66702;SDS011;60933;46.398;-63.798;2023-04-25T08:46:20;13.60;;;4.55;;
66702;SDS011;60933;46.398;-63.798;2023-04-25T08:48:47;10.23;;;3.97;;
66702;SDS011;60933;46.398;-63.798;2023-04-25T08:51:15;13.05;;;4.35;;
66702;SDS011;60933;46.398;-63.798;2023-04-25T08:53:49;9.80;;;3.88;;
66702;SDS011;60933;46.398;-63.798;2023-04-25T08:56:17;16.00;;;4.20;;
66702;SDS011;60933;46.398;-63.798;2023-04-25T08:58:50;11.43;;;4.32;;
66702;SDS011;60933;46.398;-63.798;2023-04-25T09:01:17;13.02;;;3.95;;
66702;SDS011;60933;46.398;-63.798;2023-04-25T09:03:44;9.15;;;3.05;;
66702;SDS011;60933;46.398;-63.798;2023-04-25T09:06:12;8.90;;;3.22;;
66702;SDS011;60933;46.398;-63.798;2023-04-25T09:08:39;13.40;;;4.28;;
66702;SDS011;60933;46.398;-63.798;2023-04-25T09:11:06;9.82;;;4.50;;
66702;SDS011;60933;46.398;-63.798;2023-04-25T09:13:32;10.32;;;4.07;;
66702;SDS011;60933;46.398;-63.798;2023-04-25T09:15:59;9.98;;;4.32;;
66702;SDS011;60933;46.398;-63.798;2023-04-25T09:18:26;13.18;;;4.40;;
66702;SDS011;60933;46.398;-63.798;2023-04-25T09:20:54;12.35;;;4.40;;
66702;SDS011;60933;46.398;-63.798;2023-04-25T09:23:21;12.55;;;3.85;;
66702;SDS011;60933;46.398;-63.798;2023-04-25T09:25:49;14.70;;;4.88;;
66702;SDS011;60933;46.398;-63.798;2023-04-25T09:28:22;15.68;;;4.40;;
66702;SDS011;60933;46.398;-63.798;2023-04-25T09:30:54;10.07;;;4.43;;
66702;SDS011;60933;46.398;-63.798;2023-04-25T09:33:26;19.50;;;5.07;;
66702;SDS011;60933;46.398;-63.798;2023-04-25T09:35:56;11.05;;;4.10;;
66702;SDS011;60933;46.398;-63.798;2023-04-25T09:38:43;12.52;;;4.20;;
66702;SDS011;60933;46.398;-63.798;2023-04-25T09:41:10;15.15;;;4.30;;
66702;SDS011;60933;46.398;-63.798;2023-04-25T09:43:37;11.32;;;3.50;;
66702;SDS011;60933;46.398;-63.798;2023-04-25T09:46:12;11.82;;;4.05;;
66702;SDS011;60933;46.398;-63.798;2023-04-25T09:48:38;8.63;;;3.88;;
66702;SDS011;60933;46.398;-63.798;2023-04-25T09:51:06;11.98;;;4.45;;
66702;SDS011;60933;46.398;-63.798;2023-04-25T09:53:40;11.20;;;3.63;;
66702;SDS011;60933;46.398;-63.798;2023-04-25T09:56:16;12.95;;;4.40;;
66702;SDS011;60933;46.398;-63.798;2023-04-25T09:58:45;10.32;;;3.35;;
66702;SDS011;60933;46.398;-63.798;2023-04-25T10:01:13;14.35;;;4.22;;
66702;SDS011;60933;46.398;-63.798;2023-04-25T10:03:41;12.15;;;3.83;;
66702;SDS011;60933;46.398;-63.798;2023-04-25T10:06:15;10.30;;;3.25;;
66702;SDS011;60933;46.398;-63.798;2023-04-25T10:08:44;9.63;;;4.07;;
66702;SDS011;60933;46.398;-63.798;2023-04-25T10:11:16;10.90;;;4.07;;
66702;SDS011;60933;46.398;-63.798;2023-04-25T10:13:43;11.20;;;3.58;;
66702;SDS011;60933;46.398;-63.798;2023-04-25T10:16:09;13.40;;;3.88;;
66702;SDS011;60933;46.398;-63.798;2023-04-25T10:18:36;14.35;;;3.53;;
66702;SDS011;60933;46.398;-63.798;2023-04-25T10:21:04;12.00;;;3.75;;
66702;SDS011;60933;46.398;-63.798;2023-04-25T10:23:32;11.85;;;4.53;;
66702;SDS011;60933;46.398;-63.798;2023-04-25T10:25:59;18.98;;;5.78;;
66702;SDS011;60933;46.398;-63.798;2023-04-25T10:28:27;13.02;;;4.72;;
66702;SDS011;60933;46.398;-63.798;2023-04-25T10:33:32;16.67;;;4.75;;
66702;SDS011;60933;46.398;-63.798;2023-04-25T10:36:14;14.60;;;4.72;;
66702;SDS011;60933;46.398;-63.798;2023-04-25T10:38:47;14.18;;;4.35;;
66702;SDS011;60933;46.398;-63.798;2023-04-25T10:41:13;14.00;;;4.22;;
66702;SDS011;60933;46.398;-63.798;2023-04-25T10:43:40;18.10;;;5.13;;
66702;SDS011;60933;46.398;-63.798;2023-04-25T10:46:18;15.95;;;4.63;;
66702;SDS011;60933;46.398;-63.798;2023-04-25T10:48:51;13.52;;;4.00;;
66702;SDS011;60933;46.398;-63.798;2023-04-25T10:51:28;16.83;;;4.35;;
66702;SDS011;60933;46.398;-63.798;2023-04-25T10:54:01;12.95;;;4.63;;
66702;SDS011;60933;46.398;-63.798;2023-04-25T11:01:44;14.32;;;3.95;;
66702;SDS011;60933;46.398;-63.798;2023-04-25T11:04:28;12.50;;;4.18;;
66702;SDS011;60933;46.398;-63.798;2023-04-25T11:09:55;9.98;;;3.45;;
66702;SDS011;60933;46.398;-63.798;2023-04-25T11:12:21;9.00;;;3.47;;
66702;SDS011;60933;46.398;-63.798;2023-04-25T11:14:50;13.50;;;3.67;;
66702;SDS011;60933;46.398;-63.798;2023-04-25T11:17:24;12.75;;;4.28;;
66702;SDS011;60933;46.398;-63.798;2023-04-25T11:19:50;11.90;;;3.53;;
66702;SDS011;60933;46.398;-63.798;2023-04-25T11:22:16;14.43;;;4.45;;
66702;SDS011;60933;46.398;-63.798;2023-04-25T11:24:43;14.20;;;3.83;;
66702;SDS011;60933;46.398;-63.798;2023-04-25T11:27:09;11.32;;;4.30;;
66702;SDS011;60933;46.398;-63.798;2023-04-25T11:29:35;15.43;;;4.38;;
66702;SDS011;60933;46.398;-63.798;2023-04-25T11:32:01;12.70;;;4.32;;
66702;SDS011;60933;46.398;-63.798;2023-04-25T11:34:28;10.18;;;3.45;;
66702;SDS011;60933;46.398;-63.798;2023-04-25T11:36:58;8.65;;;3.10;;
66702;SDS011;60933;46.398;-63.798;2023-04-25T11:39:25;9.10;;;3.45;;
66702;SDS011;60933;46.398;-63.798;2023-04-25T11:41:52;12.10;;;3.88;;
66702;SDS011;60933;46.398;-63.798;2023-04-25T11:44:18;6.32;;;3.00;;
66702;SDS011;60933;46.398;-63.798;2023-04-25T11:46:45;11.80;;;3.10;;
66702;SDS011;60933;46.398;-63.798;2023-04-25T11:49:12;9.65;;;3.40;;
66702;SDS011;60933;46.398;-63.798;2023-04-25T11:51:42;9.15;;;3.35;;
66702;SDS011;60933;46.398;-63.798;2023-04-25T11:54:09;9.80;;;3.10;;
66702;SDS011;60933;46.398;-63.798;2023-04-25T11:56:37;6.15;;;2.78;;
66702;SDS011;60933;46.398;-63.798;2023-04-25T11:59:05;9.82;;;3.08;;
66702;SDS011;60933;46.398;-63.798;2023-04-25T12:01:33;9.25;;;3.25;;
66702;SDS011;60933;46.398;-63.798;2023-04-25T12:04:14;4.97;;;2.00;;
66702;SDS011;60933;46.398;-63.798;2023-04-25T12:06:42;6.97;;;2.58;;
66702;SDS011;60933;46.398;-63.798;2023-04-25T12:09:12;4.35;;;2.05;;
66702;SDS011;60933;46.398;-63.798;2023-04-25T12:11:54;5.65;;;1.90;;
66702;SDS011;60933;46.398;-63.798;2023-04-25T12:14:25;5.95;;;2.60;;
66702;SDS011;60933;46.398;-63.798;2023-04-25T12:16:56;4.57;;;1.55;;
66702;SDS011;60933;46.398;-63.798;2023-04-25T12:19:26;5.55;;;1.90;;
66702;SDS011;60933;46.398;-63.798;2023-04-25T12:21:59;5.78;;;2.13;;
66702;SDS011;60933;46.398;-63.798;2023-04-25T12:24:26;6.13;;;2.05;;
66702;SDS011;60933;46.398;-63.798;2023-04-25T12:26:53;4.82;;;2.30;;
66702;SDS011;60933;46.398;-63.798;2023-04-25T12:29:26;4.10;;;1.80;;
66702;SDS011;60933;46.398;-63.798;2023-04-25T12:31:55;6.25;;;2.30;;
66702;SDS011;60933;46.398;-63.798;2023-04-25T12:34:22;4.60;;;2.13;;
66702;SDS011;60933;46.398;-63.798;2023-04-25T12:36:49;5.68;;;2.50;;
66702;SDS011;60933;46.398;-63.798;2023-04-25T12:41:44;5.40;;;2.10;;
66702;SDS011;60933;46.398;-63.798;2023-04-25T12:44:12;5.45;;;1.90;;
66702;SDS011;60933;46.398;-63.798;2023-04-25T12:46:38;4.50;;;1.90;;
66702;SDS011;60933;46.398;-63.798;2023-04-25T12:49:06;6.45;;;2.40;;
66702;SDS011;60933;46.398;-63.798;2023-04-25T12:51:35;8.23;;;2.40;;
66702;SDS011;60933;46.398;-63.798;2023-04-25T12:54:02;7.97;;;2.20;;
66702;SDS011;60933;46.398;-63.798;2023-04-25T12:56:31;4.20;;;2.25;;
66702;SDS011;60933;46.398;-63.798;2023-04-25T12:58:57;5.47;;;2.15;;
66702;SDS011;60933;46.398;-63.798;2023-04-25T13:01:24;6.07;;;2.35;;
66702;SDS011;60933;46.398;-63.798;2023-04-25T13:03:51;4.38;;;1.83;;
66702;SDS011;60933;46.398;-63.798;2023-04-25T13:06:19;6.15;;;1.95;;
66702;SDS011;60933;46.398;-63.798;2023-04-25T13:08:46;4.35;;;1.35;;
66702;SDS011;60933;46.398;-63.798;2023-04-25T13:11:12;2.55;;;1.30;;
66702;SDS011;60933;46.398;-63.798;2023-04-25T13:13:40;6.47;;;1.50;;
66702;SDS011;60933;46.398;-63.798;2023-04-25T13:16:06;3.60;;;1.73;;
66702;SDS011;60933;46.398;-63.798;2023-04-25T13:18:33;3.75;;;2.13;;
66702;SDS011;60933;46.398;-63.798;2023-04-25T13:21:00;3.88;;;1.90;;
66702;SDS011;60933;46.398;-63.798;2023-04-25T13:23:26;4.55;;;2.17;;
66702;SDS011;60933;46.398;-63.798;2023-04-25T13:25:53;3.42;;;1.70;;
66702;SDS011;60933;46.398;-63.798;2023-04-25T13:28:20;2.88;;;1.45;;
66702;SDS011;60933;46.398;-63.798;2023-04-25T13:30:46;3.25;;;1.45;;
66702;SDS011;60933;46.398;-63.798;2023-04-25T13:33:16;3.17;;;1.40;;
66702;SDS011;60933;46.398;-63.798;2023-04-25T13:35:42;4.80;;;1.98;;
66702;SDS011;60933;46.398;-63.798;2023-04-25T13:38:12;3.60;;;1.20;;
66702;SDS011;60933;46.398;-63.798;2023-04-25T13:40:38;4.20;;;1.50;;
66702;SDS011;60933;46.398;-63.798;2023-04-25T13:43:05;3.10;;;1.80;;
66702;SDS011;60933;46.398;-63.798;2023-04-25T13:45:31;2.88;;;1.50;;
66702;SDS011;60933;46.398;-63.798;2023-04-25T13:47:58;5.18;;;1.63;;
66702;SDS011;60933;46.398;-63.798;2023-04-25T13:50:24;4.00;;;1.30;;
66702;SDS011;60933;46.398;-63.798;2023-04-25T13:52:50;2.60;;;1.60;;
66702;SDS011;60933;46.398;-63.798;2023-04-25T13:55:16;3.08;;;1.70;;
66702;SDS011;60933;46.398;-63.798;2023-04-25T13:57:42;3.40;;;1.45;;
66702;SDS011;60933;46.398;-63.798;2023-04-25T14:00:09;4.57;;;1.52;;
66702;SDS011;60933;46.398;-63.798;2023-04-25T14:02:35;3.75;;;1.40;;
66702;SDS011;60933;46.398;-63.798;2023-04-25T14:05:02;3.55;;;1.52;;
66702;SDS011;60933;46.398;-63.798;2023-04-25T14:07:29;3.58;;;1.88;;
66702;SDS011;60933;46.398;-63.798;2023-04-25T14:09:55;3.67;;;1.83;;
66702;SDS011;60933;46.398;-63.798;2023-04-25T14:12:25;3.75;;;1.83;;
66702;SDS011;60933;46.398;-63.798;2023-04-25T14:14:51;4.68;;;1.98;;
66702;SDS011;60933;46.398;-63.798;2023-04-25T14:17:21;2.95;;;1.67;;
66702;SDS011;60933;46.398;-63.798;2023-04-25T14:19:47;4.00;;;1.98;;
66702;SDS011;60933;46.398;-63.798;2023-04-25T14:22:13;3.78;;;1.92;;
66702;SDS011;60933;46.398;-63.798;2023-04-25T14:24:43;3.83;;;0.93;;
66702;SDS011;60933;46.398;-63.798;2023-04-25T14:27:09;4.22;;;1.48;;
66702;SDS011;60933;46.398;-63.798;2023-04-25T14:29:35;2.22;;;1.42;;
66702;SDS011;60933;46.398;-63.798;2023-04-25T14:32:01;5.30;;;1.92;;